Search for airport 
image banner adimage banner adimage banner ad
image banner ad

0PS0 - Frederick Airpark

Located in Tylersburg, United States

ICAO - 0PS0, IATA -

Data provided by Airmate  

General information

Coordinates: N41°22'15" W79°20'30"
Elevation is 1560 feet MSL.
Magnetic variation is -09° East
View others Airports in Pennsylvania

Operational data

Special qualification required
Current time UTC:
Current local time:
Weather at : KDUJ - Dubois Rgnl ( 43 km )
METAR: KDUJ 091530Z AUTO 13007KT 2SM -SN BR FEW009 OVC014 02/01 A2999 RMK AO2 RAE29SNB29 P0007 T00220006
TAF: KDUJ 091120Z 0912/1012 14003KT P6SM VCSH BKN080 FM091500 14007KT 5SM -RA BR OVC010 FM091700 08010KT 3SM RA BR OVC005 FM100000 02008KT 4SM -RA BR OVC005 FM100500 36004KT P6SM BKN006 FM101000 29005KT P6SM BKN010
View NOTAMs / SUP AIP / TFR affecting this airport [VIEW]
Communications frequencies: [VIEW]

Runways:

RWY identifierQFULength (ft)Width (ft)SurfaceLDA (ft)
012200100GRASS
192200100GRASS

Airport contact information

Address: Tylersburg United States

Satellite view of 0PS0